sensor_id;sensor_type;location;lat;lon;timestamp;P1;durP1;ratioP1;P2;durP2;ratioP2
22644;SDS011;11489;50.834;6.752;2022-12-07T00:01:23;35.00;;;20.17;;
22644;SDS011;11489;50.834;6.752;2022-12-07T00:03:51;38.43;;;20.07;;
22644;SDS011;11489;50.834;6.752;2022-12-07T00:06:18;35.40;;;20.27;;
22644;SDS011;11489;50.834;6.752;2022-12-07T00:08:45;36.37;;;20.03;;
22644;SDS011;11489;50.834;6.752;2022-12-07T00:11:15;33.67;;;19.52;;
22644;SDS011;11489;50.834;6.752;2022-12-07T00:13:43;35.97;;;21.17;;
22644;SDS011;11489;50.834;6.752;2022-12-07T00:18:36;43.63;;;22.20;;
22644;SDS011;11489;50.834;6.752;2022-12-07T00:21:10;38.07;;;22.57;;
22644;SDS011;11489;50.834;6.752;2022-12-07T00:23:39;41.13;;;21.00;;
22644;SDS011;11489;50.834;6.752;2022-12-07T00:26:06;38.22;;;21.25;;
22644;SDS011;11489;50.834;6.752;2022-12-07T00:28:34;39.17;;;21.47;;
22644;SDS011;11489;50.834;6.752;2022-12-07T00:31:01;40.50;;;22.20;;
22644;SDS011;11489;50.834;6.752;2022-12-07T00:33:36;36.87;;;21.73;;
22644;SDS011;11489;50.834;6.752;2022-12-07T00:36:04;40.63;;;22.37;;
22644;SDS011;11489;50.834;6.752;2022-12-07T00:38:32;40.65;;;21.55;;
22644;SDS011;11489;50.834;6.752;2022-12-07T00:41:33;36.70;;;21.13;;
22644;SDS011;11489;50.834;6.752;2022-12-07T00:43:52;36.47;;;19.87;;
22644;SDS011;11489;50.834;6.752;2022-12-07T00:46:19;36.83;;;20.33;;
22644;SDS011;11489;50.834;6.752;2022-12-07T00:48:45;37.20;;;20.33;;
22644;SDS011;11489;50.834;6.752;2022-12-07T00:51:12;35.13;;;19.77;;
22644;SDS011;11489;50.834;6.752;2022-12-07T00:53:39;36.57;;;20.40;;
22644;SDS011;11489;50.834;6.752;2022-12-07T00:56:06;38.27;;;20.00;;
22644;SDS011;11489;50.834;6.752;2022-12-07T00:58:33;39.13;;;20.43;;
22644;SDS011;11489;50.834;6.752;2022-12-07T01:01:02;37.13;;;20.57;;
22644;SDS011;11489;50.834;6.752;2022-12-07T01:03:29;38.20;;;20.33;;
22644;SDS011;11489;50.834;6.752;2022-12-07T01:05:55;38.37;;;20.83;;
22644;SDS011;11489;50.834;6.752;2022-12-07T01:08:21;36.78;;;20.17;;
22644;SDS011;11489;50.834;6.752;2022-12-07T01:10:49;36.95;;;21.25;;
22644;SDS011;11489;50.834;6.752;2022-12-07T01:13:22;38.13;;;20.53;;
22644;SDS011;11489;50.834;6.752;2022-12-07T01:15:47;40.28;;;21.17;;
22644;SDS011;11489;50.834;6.752;2022-12-07T01:18:13;40.53;;;20.83;;
22644;SDS011;11489;50.834;6.752;2022-12-07T01:20:39;40.63;;;20.83;;
22644;SDS011;11489;50.834;6.752;2022-12-07T01:23:04;42.40;;;21.10;;
22644;SDS011;11489;50.834;6.752;2022-12-07T01:25:30;40.95;;;21.27;;
22644;SDS011;11489;50.834;6.752;2022-12-07T01:27:56;39.83;;;21.30;;
22644;SDS011;11489;50.834;6.752;2022-12-07T01:30:22;39.60;;;20.95;;
22644;SDS011;11489;50.834;6.752;2022-12-07T01:32:47;36.83;;;20.15;;
22644;SDS011;11489;50.834;6.752;2022-12-07T01:35:13;36.42;;;20.13;;
22644;SDS011;11489;50.834;6.752;2022-12-07T01:37:39;36.22;;;20.30;;
22644;SDS011;11489;50.834;6.752;2022-12-07T01:40:05;38.25;;;20.58;;
22644;SDS011;11489;50.834;6.752;2022-12-07T01:42:33;37.80;;;21.20;;
22644;SDS011;11489;50.834;6.752;2022-12-07T01:47:43;38.53;;;20.27;;
22644;SDS011;11489;50.834;6.752;2022-12-07T01:50:12;38.22;;;20.70;;
22644;SDS011;11489;50.834;6.752;2022-12-07T01:52:38;34.80;;;20.08;;
22644;SDS011;11489;50.834;6.752;2022-12-07T01:55:07;33.03;;;19.80;;
22644;SDS011;11489;50.834;6.752;2022-12-07T01:57:37;34.20;;;19.60;;
22644;SDS011;11489;50.834;6.752;2022-12-07T02:00:06;32.78;;;20.25;;
22644;SDS011;11489;50.834;6.752;2022-12-07T02:02:35;37.10;;;20.00;;
22644;SDS011;11489;50.834;6.752;2022-12-07T02:05:06;35.07;;;20.23;;
22644;SDS011;11489;50.834;6.752;2022-12-07T02:07:32;36.15;;;19.88;;
22644;SDS011;11489;50.834;6.752;2022-12-07T02:10:11;38.85;;;20.10;;
22644;SDS011;11489;50.834;6.752;2022-12-07T02:12:38;41.92;;;20.80;;
22644;SDS011;11489;50.834;6.752;2022-12-07T02:15:04;34.72;;;19.85;;
22644;SDS011;11489;50.834;6.752;2022-12-07T02:17:40;38.78;;;19.00;;
22644;SDS011;11489;50.834;6.752;2022-12-07T02:20:16;33.40;;;18.90;;
22644;SDS011;11489;50.834;6.752;2022-12-07T02:23:02;42.05;;;19.35;;
22644;SDS011;11489;50.834;6.752;2022-12-07T02:31:34;32.47;;;18.33;;
22644;SDS011;11489;50.834;6.752;2022-12-07T02:34:08;35.00;;;18.67;;
22644;SDS011;11489;50.834;6.752;2022-12-07T02:36:45;35.28;;;19.17;;
22644;SDS011;11489;50.834;6.752;2022-12-07T02:39:17;34.33;;;18.05;;
22644;SDS011;11489;50.834;6.752;2022-12-07T02:41:52;33.28;;;18.83;;
22644;SDS011;11489;50.834;6.752;2022-12-07T02:44:24;36.70;;;18.50;;
22644;SDS011;11489;50.834;6.752;2022-12-07T02:47:02;32.90;;;17.85;;
22644;SDS011;11489;50.834;6.752;2022-12-07T02:49:30;31.73;;;18.10;;
22644;SDS011;11489;50.834;6.752;2022-12-07T02:51:56;33.90;;;19.10;;
22644;SDS011;11489;50.834;6.752;2022-12-07T02:54:22;33.42;;;19.42;;
22644;SDS011;11489;50.834;6.752;2022-12-07T02:56:49;32.47;;;18.45;;
22644;SDS011;11489;50.834;6.752;2022-12-07T03:10:22;30.58;;;17.30;;
22644;SDS011;11489;50.834;6.752;2022-12-07T03:18:31;32.40;;;18.55;;
22644;SDS011;11489;50.834;6.752;2022-12-07T03:21:02;36.80;;;18.48;;
22644;SDS011;11489;50.834;6.752;2022-12-07T03:23:31;32.97;;;18.75;;
22644;SDS011;11489;50.834;6.752;2022-12-07T03:26:00;35.35;;;20.50;;
22644;SDS011;11489;50.834;6.752;2022-12-07T03:28:30;35.28;;;19.48;;
22644;SDS011;11489;50.834;6.752;2022-12-07T03:34:01;35.88;;;19.48;;
22644;SDS011;11489;50.834;6.752;2022-12-07T03:36:31;36.10;;;20.30;;
22644;SDS011;11489;50.834;6.752;2022-12-07T03:42:06;35.53;;;18.77;;
22644;SDS011;11489;50.834;6.752;2022-12-07T03:44:35;32.10;;;18.40;;
22644;SDS011;11489;50.834;6.752;2022-12-07T03:57:27;35.45;;;18.88;;
22644;SDS011;11489;50.834;6.752;2022-12-07T03:59:55;35.88;;;19.10;;
22644;SDS011;11489;50.834;6.752;2022-12-07T04:02:22;37.70;;;20.00;;
22644;SDS011;11489;50.834;6.752;2022-12-07T04:04:50;37.35;;;19.48;;
22644;SDS011;11489;50.834;6.752;2022-12-07T04:07:16;34.00;;;19.17;;
22644;SDS011;11489;50.834;6.752;2022-12-07T04:09:41;32.13;;;19.23;;
22644;SDS011;11489;50.834;6.752;2022-12-07T04:12:07;38.53;;;20.55;;
22644;SDS011;11489;50.834;6.752;2022-12-07T04:14:33;39.72;;;20.40;;
22644;SDS011;11489;50.834;6.752;2022-12-07T04:16:59;35.08;;;19.50;;
22644;SDS011;11489;50.834;6.752;2022-12-07T04:19:25;37.50;;;19.33;;
22644;SDS011;11489;50.834;6.752;2022-12-07T04:21:56;34.85;;;18.20;;
22644;SDS011;11489;50.834;6.752;2022-12-07T04:24:23;31.67;;;17.58;;
22644;SDS011;11489;50.834;6.752;2022-12-07T04:26:49;41.30;;;18.60;;
22644;SDS011;11489;50.834;6.752;2022-12-07T04:29:15;36.65;;;19.15;;
22644;SDS011;11489;50.834;6.752;2022-12-07T04:31:41;31.70;;;17.50;;
22644;SDS011;11489;50.834;6.752;2022-12-07T04:34:08;32.67;;;16.92;;
22644;SDS011;11489;50.834;6.752;2022-12-07T04:36:34;37.22;;;17.92;;
22644;SDS011;11489;50.834;6.752;2022-12-07T04:39:00;34.97;;;17.55;;
22644;SDS011;11489;50.834;6.752;2022-12-07T04:41:26;31.65;;;17.70;;
22644;SDS011;11489;50.834;6.752;2022-12-07T04:43:53;32.10;;;17.45;;
22644;SDS011;11489;50.834;6.752;2022-12-07T04:46:20;31.48;;;17.45;;
22644;SDS011;11489;50.834;6.752;2022-12-07T04:48:45;32.10;;;17.07;;
22644;SDS011;11489;50.834;6.752;2022-12-07T04:51:11;31.03;;;16.67;;
22644;SDS011;11489;50.834;6.752;2022-12-07T04:53:37;35.20;;;16.50;;
22644;SDS011;11489;50.834;6.752;2022-12-07T04:56:02;31.13;;;16.63;;
22644;SDS011;11489;50.834;6.752;2022-12-07T04:58:28;31.93;;;17.30;;
22644;SDS011;11489;50.834;6.752;2022-12-07T05:00:54;34.50;;;17.73;;
22644;SDS011;11489;50.834;6.752;2022-12-07T05:03:20;32.27;;;16.97;;
22644;SDS011;11489;50.834;6.752;2022-12-07T05:05:46;29.93;;;15.97;;
22644;SDS011;11489;50.834;6.752;2022-12-07T05:08:11;30.93;;;16.53;;
22644;SDS011;11489;50.834;6.752;2022-12-07T05:10:37;30.07;;;16.33;;
22644;SDS011;11489;50.834;6.752;2022-12-07T05:13:02;31.50;;;17.07;;
22644;SDS011;11489;50.834;6.752;2022-12-07T05:15:28;36.03;;;17.40;;
22644;SDS011;11489;50.834;6.752;2022-12-07T05:17:54;33.30;;;17.27;;
22644;SDS011;11489;50.834;6.752;2022-12-07T05:20:19;36.10;;;17.33;;
22644;SDS011;11489;50.834;6.752;2022-12-07T05:22:45;32.93;;;16.97;;
22644;SDS011;11489;50.834;6.752;2022-12-07T05:25:10;32.93;;;17.23;;
22644;SDS011;11489;50.834;6.752;2022-12-07T05:27:36;34.13;;;17.30;;
22644;SDS011;11489;50.834;6.752;2022-12-07T05:30:02;34.10;;;16.83;;
22644;SDS011;11489;50.834;6.752;2022-12-07T05:32:28;35.30;;;17.03;;
22644;SDS011;11489;50.834;6.752;2022-12-07T05:34:54;34.97;;;17.23;;
22644;SDS011;11489;50.834;6.752;2022-12-07T05:37:20;34.93;;;17.27;;
22644;SDS011;11489;50.834;6.752;2022-12-07T05:39:45;32.43;;;17.13;;
22644;SDS011;11489;50.834;6.752;2022-12-07T05:42:11;37.30;;;18.10;;
22644;SDS011;11489;50.834;6.752;2022-12-07T05:44:37;39.70;;;18.00;;
22644;SDS011;11489;50.834;6.752;2022-12-07T05:47:07;37.37;;;17.87;;
22644;SDS011;11489;50.834;6.752;2022-12-07T05:49:33;31.73;;;16.10;;
22644;SDS011;11489;50.834;6.752;2022-12-07T05:51:59;33.23;;;16.97;;
22644;SDS011;11489;50.834;6.752;2022-12-07T05:54:24;35.70;;;17.60;;
22644;SDS011;11489;50.834;6.752;2022-12-07T05:56:50;31.50;;;17.47;;
22644;SDS011;11489;50.834;6.752;2022-12-07T05:59:16;34.47;;;17.50;;
22644;SDS011;11489;50.834;6.752;2022-12-07T06:01:58;35.57;;;18.17;;
22644;SDS011;11489;50.834;6.752;2022-12-07T06:04:26;36.40;;;17.63;;
22644;SDS011;11489;50.834;6.752;2022-12-07T06:06:53;34.97;;;17.27;;
22644;SDS011;11489;50.834;6.752;2022-12-07T06:09:20;34.23;;;16.97;;
22644;SDS011;11489;50.834;6.752;2022-12-07T06:11:46;34.93;;;17.00;;
22644;SDS011;11489;50.834;6.752;2022-12-07T06:14:30;28.40;;;13.67;;
22644;SDS011;11489;50.834;6.752;2022-12-07T06:16:56;27.13;;;14.00;;
22644;SDS011;11489;50.834;6.752;2022-12-07T06:19:22;23.23;;;12.70;;
22644;SDS011;11489;50.834;6.752;2022-12-07T06:21:48;22.53;;;13.13;;
22644;SDS011;11489;50.834;6.752;2022-12-07T06:24:14;24.13;;;13.57;;
22644;SDS011;11489;50.834;6.752;2022-12-07T06:26:41;25.73;;;13.60;;
22644;SDS011;11489;50.834;6.752;2022-12-07T06:29:07;29.03;;;14.77;;
22644;SDS011;11489;50.834;6.752;2022-12-07T06:31:33;31.13;;;16.10;;
22644;SDS011;11489;50.834;6.752;2022-12-07T06:33:59;30.43;;;15.73;;
22644;SDS011;11489;50.834;6.752;2022-12-07T06:36:29;31.57;;;16.53;;
22644;SDS011;11489;50.834;6.752;2022-12-07T06:38:55;36.63;;;17.03;;
22644;SDS011;11489;50.834;6.752;2022-12-07T06:41:21;30.87;;;17.23;;
22644;SDS011;11489;50.834;6.752;2022-12-07T06:43:47;38.30;;;18.00;;
22644;SDS011;11489;50.834;6.752;2022-12-07T06:46:14;37.17;;;18.23;;
22644;SDS011;11489;50.834;6.752;2022-12-07T06:48:40;31.80;;;17.23;;
22644;SDS011;11489;50.834;6.752;2022-12-07T06:51:07;36.37;;;17.70;;
22644;SDS011;11489;50.834;6.752;2022-12-07T06:53:33;34.00;;;17.27;;
22644;SDS011;11489;50.834;6.752;2022-12-07T06:55:58;32.70;;;16.87;;
22644;SDS011;11489;50.834;6.752;2022-12-07T06:58:24;37.43;;;17.00;;
22644;SDS011;11489;50.834;6.752;2022-12-07T07:00:50;35.20;;;17.47;;
22644;SDS011;11489;50.834;6.752;2022-12-07T07:03:15;35.17;;;17.07;;
22644;SDS011;11489;50.834;6.752;2022-12-07T07:05:42;34.10;;;16.80;;
22644;SDS011;11489;50.834;6.752;2022-12-07T07:08:08;34.70;;;18.17;;
22644;SDS011;11489;50.834;6.752;2022-12-07T07:10:34;34.17;;;16.73;;
22644;SDS011;11489;50.834;6.752;2022-12-07T07:13:00;35.03;;;16.50;;
22644;SDS011;11489;50.834;6.752;2022-12-07T07:15:26;31.42;;;16.00;;
22644;SDS011;11489;50.834;6.752;2022-12-07T07:17:51;34.17;;;16.38;;
22644;SDS011;11489;50.834;6.752;2022-12-07T07:20:17;32.90;;;15.87;;
22644;SDS011;11489;50.834;6.752;2022-12-07T07:22:43;30.40;;;15.77;;
22644;SDS011;11489;50.834;6.752;2022-12-07T07:25:09;32.20;;;17.10;;
22644;SDS011;11489;50.834;6.752;2022-12-07T07:27:34;30.17;;;15.67;;
22644;SDS011;11489;50.834;6.752;2022-12-07T07:30:00;34.80;;;16.27;;
22644;SDS011;11489;50.834;6.752;2022-12-07T07:32:26;29.53;;;16.20;;
22644;SDS011;11489;50.834;6.752;2022-12-07T07:34:51;35.00;;;15.57;;
22644;SDS011;11489;50.834;6.752;2022-12-07T07:37:17;31.40;;;16.37;;
22644;SDS011;11489;50.834;6.752;2022-12-07T07:39:43;27.63;;;14.93;;
22644;SDS011;11489;50.834;6.752;2022-12-07T07:42:09;32.77;;;15.37;;
22644;SDS011;11489;50.834;6.752;2022-12-07T07:44:34;31.63;;;16.47;;
22644;SDS011;11489;50.834;6.752;2022-12-07T07:47:00;34.23;;;16.27;;
22644;SDS011;11489;50.834;6.752;2022-12-07T07:49:26;28.30;;;15.30;;
22644;SDS011;11489;50.834;6.752;2022-12-07T07:51:51;31.70;;;14.93;;
22644;SDS011;11489;50.834;6.752;2022-12-07T07:54:17;32.03;;;16.00;;
22644;SDS011;11489;50.834;6.752;2022-12-07T07:56:43;30.70;;;14.77;;
22644;SDS011;11489;50.834;6.752;2022-12-07T07:59:08;30.23;;;14.73;;
22644;SDS011;11489;50.834;6.752;2022-12-07T08:01:34;26.67;;;14.60;;
22644;SDS011;11489;50.834;6.752;2022-12-07T08:04:00;30.03;;;14.30;;
22644;SDS011;11489;50.834;6.752;2022-12-07T08:06:26;27.17;;;14.30;;
22644;SDS011;11489;50.834;6.752;2022-12-07T08:08:52;26.97;;;14.03;;
22644;SDS011;11489;50.834;6.752;2022-12-07T08:11:17;29.40;;;14.03;;
22644;SDS011;11489;50.834;6.752;2022-12-07T08:13:45;25.90;;;14.13;;
22644;SDS011;11489;50.834;6.752;2022-12-07T08:16:14;33.00;;;14.67;;
22644;SDS011;11489;50.834;6.752;2022-12-07T08:18:40;26.37;;;13.93;;
22644;SDS011;11489;50.834;6.752;2022-12-07T08:21:07;25.73;;;14.10;;
22644;SDS011;11489;50.834;6.752;2022-12-07T08:23:36;28.00;;;14.00;;
22644;SDS011;11489;50.834;6.752;2022-12-07T08:26:12;29.33;;;14.13;;
22644;SDS011;11489;50.834;6.752;2022-12-07T08:28:39;27.03;;;13.87;;
22644;SDS011;11489;50.834;6.752;2022-12-07T08:31:06;31.63;;;15.10;;
22644;SDS011;11489;50.834;6.752;2022-12-07T08:33:37;32.27;;;15.80;;
22644;SDS011;11489;50.834;6.752;2022-12-07T08:36:04;32.97;;;15.77;;
22644;SDS011;11489;50.834;6.752;2022-12-07T08:38:31;34.83;;;15.80;;
22644;SDS011;11489;50.834;6.752;2022-12-07T08:40:59;34.93;;;16.37;;
22644;SDS011;11489;50.834;6.752;2022-12-07T08:43:25;35.80;;;16.90;;
22644;SDS011;11489;50.834;6.752;2022-12-07T08:45:58;33.03;;;15.90;;
22644;SDS011;11489;50.834;6.752;2022-12-07T08:48:45;35.03;;;14.70;;
22644;SDS011;11489;50.834;6.752;2022-12-07T08:51:23;30.73;;;16.07;;
22644;SDS011;11489;50.834;6.752;2022-12-07T08:53:49;31.20;;;15.40;;
22644;SDS011;11489;50.834;6.752;2022-12-07T08:56:16;29.80;;;15.33;;
22644;SDS011;11489;50.834;6.752;2022-12-07T08:58:42;31.37;;;15.50;;
22644;SDS011;11489;50.834;6.752;2022-12-07T09:01:09;31.87;;;15.23;;
22644;SDS011;11489;50.834;6.752;2022-12-07T09:03:35;33.50;;;16.00;;
22644;SDS011;11489;50.834;6.752;2022-12-07T09:06:00;34.93;;;16.73;;
22644;SDS011;11489;50.834;6.752;2022-12-07T09:08:28;32.65;;;16.13;;
22644;SDS011;11489;50.834;6.752;2022-12-07T09:10:59;33.42;;;16.52;;
22644;SDS011;11489;50.834;6.752;2022-12-07T09:13:24;35.50;;;17.23;;
22644;SDS011;11489;50.834;6.752;2022-12-07T09:15:57;39.22;;;17.63;;
22644;SDS011;11489;50.834;6.752;2022-12-07T09:18:23;37.78;;;19.00;;
22644;SDS011;11489;50.834;6.752;2022-12-07T09:20:50;44.47;;;19.25;;
22644;SDS011;11489;50.834;6.752;2022-12-07T09:23:16;44.45;;;21.10;;
22644;SDS011;11489;50.834;6.752;2022-12-07T09:25:41;44.83;;;19.85;;
22644;SDS011;11489;50.834;6.752;2022-12-07T09:28:07;43.92;;;20.42;;
22644;SDS011;11489;50.834;6.752;2022-12-07T09:30:33;40.80;;;20.30;;
22644;SDS011;11489;50.834;6.752;2022-12-07T09:32:59;41.60;;;19.48;;
22644;SDS011;11489;50.834;6.752;2022-12-07T09:35:25;47.33;;;19.80;;
22644;SDS011;11489;50.834;6.752;2022-12-07T09:37:51;42.00;;;20.15;;
22644;SDS011;11489;50.834;6.752;2022-12-07T09:40:17;42.70;;;19.63;;
22644;SDS011;11489;50.834;6.752;2022-12-07T09:42:47;39.17;;;20.42;;
22644;SDS011;11489;50.834;6.752;2022-12-07T09:45:21;42.17;;;20.10;;
22644;SDS011;11489;50.834;6.752;2022-12-07T09:47:54;36.28;;;18.08;;
22644;SDS011;11489;50.834;6.752;2022-12-07T09:50:21;37.08;;;17.40;;
22644;SDS011;11489;50.834;6.752;2022-12-07T09:52:49;35.75;;;18.20;;
22644;SDS011;11489;50.834;6.752;2022-12-07T09:55:22;33.28;;;17.90;;
22644;SDS011;11489;50.834;6.752;2022-12-07T09:57:51;37.17;;;17.75;;
22644;SDS011;11489;50.834;6.752;2022-12-07T10:00:19;32.28;;;17.00;;
22644;SDS011;11489;50.834;6.752;2022-12-07T10:02:47;33.90;;;16.75;;
22644;SDS011;11489;50.834;6.752;2022-12-07T10:05:30;31.65;;;16.48;;
22644;SDS011;11489;50.834;6.752;2022-12-07T10:07:59;33.30;;;16.20;;
22644;SDS011;11489;50.834;6.752;2022-12-07T10:10:26;27.27;;;14.68;;
22644;SDS011;11489;50.834;6.752;2022-12-07T10:13:04;28.48;;;14.85;;
22644;SDS011;11489;50.834;6.752;2022-12-07T10:24:00;21.13;;;11.45;;
22644;SDS011;11489;50.834;6.752;2022-12-07T10:26:50;22.52;;;10.60;;
22644;SDS011;11489;50.834;6.752;2022-12-07T10:32:30;18.75;;;10.38;;
22644;SDS011;11489;50.834;6.752;2022-12-07T10:34:42;17.65;;;10.18;;
22644;SDS011;11489;50.834;6.752;2022-12-07T10:39:57;18.50;;;9.43;;
22644;SDS011;11489;50.834;6.752;2022-12-07T10:42:23;14.73;;;9.10;;
22644;SDS011;11489;50.834;6.752;2022-12-07T10:48:03;14.98;;;8.60;;
22644;SDS011;11489;50.834;6.752;2022-12-07T10:53:44;15.40;;;8.57;;
22644;SDS011;11489;50.834;6.752;2022-12-07T10:56:43;17.35;;;9.00;;
22644;SDS011;11489;50.834;6.752;2022-12-07T10:59:19;15.48;;;8.70;;
22644;SDS011;11489;50.834;6.752;2022-12-07T11:01:57;20.08;;;9.45;;
22644;SDS011;11489;50.834;6.752;2022-12-07T11:08:02;17.75;;;9.02;;
22644;SDS011;11489;50.834;6.752;2022-12-07T11:13:23;17.98;;;8.48;;
22644;SDS011;11489;50.834;6.752;2022-12-07T11:18:43;18.42;;;9.05;;
22644;SDS011;11489;50.834;6.752;2022-12-07T11:21:24;21.45;;;9.75;;
22644;SDS011;11489;50.834;6.752;2022-12-07T11:26:54;20.80;;;10.63;;
22644;SDS011;11489;50.834;6.752;2022-12-07T11:33:00;21.40;;;10.15;;
22644;SDS011;11489;50.834;6.752;2022-12-07T11:38:41;15.88;;;8.85;;
22644;SDS011;11489;50.834;6.752;2022-12-07T11:41:16;22.35;;;10.07;;
22644;SDS011;11489;50.834;6.752;2022-12-07T11:46:29;18.75;;;8.90;;
22644;SDS011;11489;50.834;6.752;2022-12-07T11:49:12;15.27;;;8.27;;
22644;SDS011;11489;50.834;6.752;2022-12-07T11:51:53;14.18;;;7.57;;
22644;SDS011;11489;50.834;6.752;2022-12-07T11:54:23;16.67;;;8.18;;
22644;SDS011;11489;50.834;6.752;2022-12-07T11:56:57;14.65;;;8.43;;
22644;SDS011;11489;50.834;6.752;2022-12-07T11:59:36;15.07;;;8.02;;
22644;SDS011;11489;50.834;6.752;2022-12-07T12:02:13;19.55;;;7.95;;
22644;SDS011;11489;50.834;6.752;2022-12-07T12:07:24;18.10;;;8.02;;
22644;SDS011;11489;50.834;6.752;2022-12-07T12:09:53;18.83;;;9.02;;
22644;SDS011;11489;50.834;6.752;2022-12-07T12:18:13;24.00;;;10.93;;
22644;SDS011;11489;50.834;6.752;2022-12-07T12:20:52;19.35;;;10.65;;
22644;SDS011;11489;50.834;6.752;2022-12-07T12:23:34;21.20;;;10.88;;
22644;SDS011;11489;50.834;6.752;2022-12-07T12:26:07;17.50;;;10.55;;
22644;SDS011;11489;50.834;6.752;2022-12-07T12:33:50;24.33;;;11.07;;
22644;SDS011;11489;50.834;6.752;2022-12-07T12:39:14;26.50;;;11.10;;
22644;SDS011;11489;50.834;6.752;2022-12-07T12:46:54;23.23;;;11.18;;
22644;SDS011;11489;50.834;6.752;2022-12-07T12:51:50;18.15;;;10.85;;
22644;SDS011;11489;50.834;6.752;2022-12-07T12:54:23;18.52;;;11.32;;
22644;SDS011;11489;50.834;6.752;2022-12-07T12:56:52;19.40;;;10.98;;
22644;SDS011;11489;50.834;6.752;2022-12-07T12:59:28;18.85;;;10.65;;
22644;SDS011;11489;50.834;6.752;2022-12-07T13:23:20;20.30;;;11.00;;
22644;SDS011;11489;50.834;6.752;2022-12-07T13:26:09;16.00;;;10.27;;
22644;SDS011;11489;50.834;6.752;2022-12-07T13:28:43;20.88;;;10.45;;
22644;SDS011;11489;50.834;6.752;2022-12-07T13:31:16;20.20;;;10.73;;
22644;SDS011;11489;50.834;6.752;2022-12-07T13:33:45;15.70;;;10.18;;
22644;SDS011;11489;50.834;6.752;2022-12-07T13:36:17;16.98;;;10.07;;
22644;SDS011;11489;50.834;6.752;2022-12-07T13:38:50;19.15;;;10.70;;
22644;SDS011;11489;50.834;6.752;2022-12-07T13:41:35;20.20;;;10.18;;
22644;SDS011;11489;50.834;6.752;2022-12-07T13:44:14;19.92;;;10.23;;
22644;SDS011;11489;50.834;6.752;2022-12-07T13:46:43;20.25;;;9.88;;
22644;SDS011;11489;50.834;6.752;2022-12-07T13:49:29;18.52;;;9.57;;
22644;SDS011;11489;50.834;6.752;2022-12-07T13:52:17;20.40;;;9.13;;
22644;SDS011;11489;50.834;6.752;2022-12-07T13:54:49;20.55;;;10.60;;
22644;SDS011;11489;50.834;6.752;2022-12-07T13:57:21;19.45;;;10.57;;
22644;SDS011;11489;50.834;6.752;2022-12-07T13:59:49;17.33;;;10.23;;
22644;SDS011;11489;50.834;6.752;2022-12-07T14:05:12;20.65;;;9.95;;
22644;SDS011;11489;50.834;6.752;2022-12-07T14:10:24;18.05;;;10.50;;
22644;SDS011;11489;50.834;6.752;2022-12-07T14:12:51;19.20;;;10.90;;
22644;SDS011;11489;50.834;6.752;2022-12-07T14:15:24;16.40;;;8.88;;
22644;SDS011;11489;50.834;6.752;2022-12-07T14:17:54;15.98;;;9.77;;
22644;SDS011;11489;50.834;6.752;2022-12-07T14:20:30;20.52;;;9.93;;
22644;SDS011;11489;50.834;6.752;2022-12-07T14:22:56;18.67;;;9.27;;
22644;SDS011;11489;50.834;6.752;2022-12-07T14:25:23;19.95;;;10.77;;
22644;SDS011;11489;50.834;6.752;2022-12-07T14:27:54;20.67;;;10.63;;
22644;SDS011;11489;50.834;6.752;2022-12-07T14:30:27;16.17;;;10.20;;
22644;SDS011;11489;50.834;6.752;2022-12-07T14:32:57;20.23;;;10.23;;
22644;SDS011;11489;50.834;6.752;2022-12-07T14:35:25;19.65;;;10.05;;
22644;SDS011;11489;50.834;6.752;2022-12-07T14:37:51;22.45;;;11.55;;
22644;SDS011;11489;50.834;6.752;2022-12-07T14:40:18;19.17;;;11.00;;
22644;SDS011;11489;50.834;6.752;2022-12-07T14:42:50;22.38;;;10.75;;
22644;SDS011;11489;50.834;6.752;2022-12-07T14:45:21;17.42;;;10.30;;
22644;SDS011;11489;50.834;6.752;2022-12-07T14:47:47;18.98;;;10.13;;
22644;SDS011;11489;50.834;6.752;2022-12-07T14:50:17;16.08;;;9.85;;
22644;SDS011;11489;50.834;6.752;2022-12-07T14:52:48;17.02;;;9.75;;
22644;SDS011;11489;50.834;6.752;2022-12-07T14:55:28;17.00;;;9.93;;
22644;SDS011;11489;50.834;6.752;2022-12-07T14:57:55;19.30;;;10.02;;
22644;SDS011;11489;50.834;6.752;2022-12-07T15:00:25;19.25;;;10.10;;
22644;SDS011;11489;50.834;6.752;2022-12-07T15:02:52;18.52;;;9.75;;
22644;SDS011;11489;50.834;6.752;2022-12-07T15:05:18;18.15;;;9.60;;
22644;SDS011;11489;50.834;6.752;2022-12-07T15:07:44;16.25;;;9.40;;
22644;SDS011;11489;50.834;6.752;2022-12-07T15:10:15;14.70;;;9.02;;
22644;SDS011;11489;50.834;6.752;2022-12-07T15:12:41;17.50;;;10.90;;
22644;SDS011;11489;50.834;6.752;2022-12-07T15:15:07;27.23;;;14.77;;
22644;SDS011;11489;50.834;6.752;2022-12-07T15:17:33;22.45;;;12.93;;
22644;SDS011;11489;50.834;6.752;2022-12-07T15:19:59;21.70;;;11.85;;
22644;SDS011;11489;50.834;6.752;2022-12-07T15:22:24;20.70;;;10.65;;
22644;SDS011;11489;50.834;6.752;2022-12-07T15:24:50;20.35;;;10.48;;
22644;SDS011;11489;50.834;6.752;2022-12-07T15:27:15;19.20;;;10.27;;
22644;SDS011;11489;50.834;6.752;2022-12-07T15:29:41;20.98;;;9.82;;
22644;SDS011;11489;50.834;6.752;2022-12-07T15:32:07;22.10;;;9.80;;
22644;SDS011;11489;50.834;6.752;2022-12-07T15:34:32;16.33;;;9.85;;
22644;SDS011;11489;50.834;6.752;2022-12-07T15:36:59;19.05;;;10.02;;
22644;SDS011;11489;50.834;6.752;2022-12-07T15:39:24;19.20;;;10.35;;
22644;SDS011;11489;50.834;6.752;2022-12-07T15:41:50;20.33;;;9.82;;
22644;SDS011;11489;50.834;6.752;2022-12-07T15:44:16;18.55;;;10.40;;
22644;SDS011;11489;50.834;6.752;2022-12-07T15:47:00;19.30;;;10.77;;
22644;SDS011;11489;50.834;6.752;2022-12-07T15:49:26;18.10;;;9.88;;
22644;SDS011;11489;50.834;6.752;2022-12-07T15:51:52;19.23;;;10.88;;
22644;SDS011;11489;50.834;6.752;2022-12-07T15:56:48;20.65;;;11.27;;
22644;SDS011;11489;50.834;6.752;2022-12-07T15:59:14;21.00;;;11.95;;
22644;SDS011;11489;50.834;6.752;2022-12-07T16:01:41;28.55;;;12.57;;
22644;SDS011;11489;50.834;6.752;2022-12-07T16:04:06;22.48;;;11.73;;
22644;SDS011;11489;50.834;6.752;2022-12-07T16:06:32;20.23;;;11.35;;
22644;SDS011;11489;50.834;6.752;2022-12-07T16:08:58;20.00;;;11.95;;
22644;SDS011;11489;50.834;6.752;2022-12-07T16:11:23;18.00;;;10.38;;
22644;SDS011;11489;50.834;6.752;2022-12-07T16:13:49;14.45;;;8.90;;
22644;SDS011;11489;50.834;6.752;2022-12-07T16:16:16;17.67;;;8.80;;
22644;SDS011;11489;50.834;6.752;2022-12-07T16:18:43;15.65;;;9.32;;
22644;SDS011;11489;50.834;6.752;2022-12-07T16:21:10;12.40;;;8.05;;
22644;SDS011;11489;50.834;6.752;2022-12-07T16:23:36;11.80;;;7.32;;
22644;SDS011;11489;50.834;6.752;2022-12-07T16:26:06;16.15;;;8.15;;
22644;SDS011;11489;50.834;6.752;2022-12-07T16:28:33;11.35;;;7.82;;
22644;SDS011;11489;50.834;6.752;2022-12-07T16:31:00;15.38;;;8.10;;
22644;SDS011;11489;50.834;6.752;2022-12-07T16:33:40;13.80;;;7.23;;
22644;SDS011;11489;50.834;6.752;2022-12-07T16:36:07;14.00;;;8.10;;
22644;SDS011;11489;50.834;6.752;2022-12-07T16:38:34;17.50;;;10.23;;
22644;SDS011;11489;50.834;6.752;2022-12-07T16:41:01;20.23;;;10.53;;
22644;SDS011;11489;50.834;6.752;2022-12-07T16:43:27;24.93;;;11.50;;
22644;SDS011;11489;50.834;6.752;2022-12-07T16:45:53;28.27;;;13.77;;
22644;SDS011;11489;50.834;6.752;2022-12-07T16:48:19;28.37;;;13.70;;
22644;SDS011;11489;50.834;6.752;2022-12-07T16:50:44;26.50;;;13.60;;
22644;SDS011;11489;50.834;6.752;2022-12-07T16:53:12;24.20;;;12.50;;